createdAt,value
2022-11-24T00:01:45.349Z,7.40
2022-11-24T00:04:13.583Z,7.40
2022-11-24T00:06:43.391Z,7.50
2022-11-24T00:09:12.068Z,7.50
2022-11-24T00:11:43.634Z,7.50
2022-11-24T00:14:12.243Z,7.50
2022-11-24T00:16:41.044Z,7.50
2022-11-24T00:19:14.692Z,7.50
2022-11-24T00:21:48.072Z,7.50
2022-11-24T00:24:16.570Z,7.50
2022-11-24T00:26:44.669Z,7.50
2022-11-24T00:29:12.981Z,7.50
2022-11-24T00:31:41.766Z,7.50
2022-11-24T00:34:12.765Z,7.50
2022-11-24T00:36:41.689Z,7.50
2022-11-24T00:39:12.276Z,7.50
2022-11-24T00:41:40.425Z,7.50
2022-11-24T00:44:09.185Z,7.50
2022-11-24T00:46:37.476Z,7.50
2022-11-24T00:49:06.277Z,7.50
2022-11-24T00:51:34.986Z,7.50
2022-11-24T00:54:03.633Z,7.50
2022-11-24T00:56:33.603Z,7.50
2022-11-24T00:59:02.030Z,7.50
2022-11-24T01:01:31.402Z,7.50
2022-11-24T01:04:01.316Z,7.40
2022-11-24T01:06:30.074Z,7.40
2022-11-24T01:08:58.290Z,7.40
2022-11-24T01:11:27.197Z,7.40
2022-11-24T01:13:58.497Z,7.40
2022-11-24T01:16:27.792Z,7.50
2022-11-24T01:18:56.707Z,7.40
2022-11-24T01:21:24.963Z,7.50
2022-11-24T01:23:53.390Z,7.40
2022-11-24T01:26:22.405Z,7.40
2022-11-24T01:28:53.942Z,7.40
2022-11-24T01:31:23.684Z,7.40
2022-11-24T01:33:51.866Z,7.40
2022-11-24T01:36:20.286Z,7.40
2022-11-24T01:38:48.802Z,7.40
2022-11-24T01:41:18.346Z,7.40
2022-11-24T01:43:46.708Z,7.30
2022-11-24T01:46:18.276Z,7.40
2022-11-24T01:48:50.559Z,7.40
2022-11-24T01:51:21.260Z,7.40
2022-11-24T01:53:53.054Z,7.30
2022-11-24T01:56:21.661Z,7.30
2022-11-24T01:58:50.712Z,7.30
2022-11-24T02:01:19.125Z,7.30
2022-11-24T02:03:49.962Z,7.30
2022-11-24T02:06:20.005Z,7.30
2022-11-24T02:08:51.503Z,7.30
2022-11-24T02:11:20.148Z,7.30
2022-11-24T02:13:49.581Z,7.20
2022-11-24T02:16:17.966Z,7.20
2022-11-24T02:18:48.129Z,7.10
2022-11-24T02:21:17.740Z,7.20
2022-11-24T02:23:53.406Z,7.20
2022-11-24T02:26:28.180Z,7.20
2022-11-24T02:28:56.461Z,7.20
2022-11-24T02:31:24.713Z,7.20
2022-11-24T02:33:53.441Z,7.30
2022-11-24T02:36:21.594Z,7.20
2022-11-24T02:38:50.334Z,7.20
2022-11-24T02:41:20.483Z,7.20
2022-11-24T02:43:53.102Z,7.20
2022-11-24T02:46:21.449Z,7.20
2022-11-24T02:48:49.632Z,7.20
2022-11-24T02:51:18.771Z,7.10
2022-11-24T02:53:46.891Z,7.20
2022-11-24T02:56:15.615Z,7.10
2022-11-24T02:58:43.828Z,7.20
2022-11-24T03:01:13.901Z,7.20
2022-11-24T03:03:42.074Z,7.10
2022-11-24T03:06:10.875Z,7.00
2022-11-24T03:08:38.995Z,7.00
2022-11-24T03:11:07.745Z,7.10
2022-11-24T03:13:35.982Z,7.20
2022-11-24T03:16:04.374Z,7.20
2022-11-24T03:18:34.275Z,7.20
2022-11-24T03:21:02.425Z,7.20
2022-11-24T03:23:30.813Z,7.20
2022-11-24T03:26:07.614Z,7.10
2022-11-24T03:28:36.435Z,7.10
2022-11-24T03:31:04.594Z,7.10
2022-11-24T03:33:34.437Z,7.10
2022-11-24T03:36:02.576Z,7.00
2022-11-24T03:38:31.304Z,7.00
2022-11-24T03:40:59.549Z,6.90
2022-11-24T03:43:27.933Z,7.00
2022-11-24T03:45:56.753Z,7.00
2022-11-24T03:48:24.995Z,7.00
2022-11-24T03:50:56.115Z,7.00
2022-11-24T03:53:24.836Z,7.00
2022-11-24T03:55:53.805Z,7.00
2022-11-24T03:58:21.902Z,7.10
2022-11-24T04:00:51.001Z,7.10
2022-11-24T04:03:20.311Z,7.10
2022-11-24T04:05:48.659Z,7.20
2022-11-24T04:08:18.566Z,7.20
2022-11-24T04:10:49.966Z,7.20
2022-11-24T04:13:18.275Z,7.30
2022-11-24T04:15:46.826Z,7.30
2022-11-24T04:18:18.490Z,7.30
2022-11-24T04:20:46.795Z,7.30
2022-11-24T04:23:15.322Z,7.30
2022-11-24T04:25:44.849Z,7.30
2022-11-24T04:28:13.544Z,7.40
2022-11-24T04:30:44.690Z,7.40
2022-11-24T04:33:14.094Z,7.40
2022-11-24T04:35:43.040Z,7.40
2022-11-24T04:38:11.696Z,7.30
2022-11-24T04:40:40.385Z,7.40
2022-11-24T04:43:10.432Z,7.40
2022-11-24T04:45:39.881Z,7.40
2022-11-24T04:48:08.453Z,7.30
2022-11-24T04:50:37.210Z,7.30
2022-11-24T04:53:05.439Z,7.30
2022-11-24T04:55:34.182Z,7.40
2022-11-24T04:58:02.494Z,7.40
2022-11-24T05:00:32.655Z,7.40
2022-11-24T05:03:00.927Z,7.40
2022-11-24T05:05:29.339Z,7.40
2022-11-24T05:07:59.637Z,7.40
2022-11-24T05:10:37.259Z,7.40
2022-11-24T05:13:06.974Z,7.40
2022-11-24T05:15:37.634Z,7.50
2022-11-24T05:18:06.923Z,7.50
2022-11-24T05:20:35.531Z,7.40
2022-11-24T05:23:04.535Z,7.40
2022-11-24T05:25:32.756Z,7.40
2022-11-24T05:28:02.043Z,7.30
2022-11-24T05:30:30.925Z,7.30
2022-11-24T05:33:05.829Z,7.30
2022-11-24T05:35:34.141Z,7.30
2022-11-24T05:38:02.436Z,7.30
2022-11-24T05:40:32.007Z,7.40
2022-11-24T05:43:00.530Z,7.40
2022-11-24T05:45:30.514Z,7.40
2022-11-24T05:48:05.371Z,7.40
2022-11-24T05:50:34.338Z,7.40
2022-11-24T05:53:05.814Z,7.40
2022-11-24T05:55:34.841Z,7.40
2022-11-24T05:58:03.779Z,7.40
2022-11-24T06:00:33.500Z,7.40
2022-11-24T06:03:02.202Z,7.40
2022-11-24T06:05:32.963Z,7.40
2022-11-24T06:08:01.863Z,7.50
2022-11-24T06:10:30.424Z,7.50
2022-11-24T06:12:58.452Z,7.50
2022-11-24T06:15:26.601Z,7.50
2022-11-24T06:17:56.139Z,7.50
2022-11-24T06:20:33.316Z,7.60
2022-11-24T06:23:05.875Z,7.60
2022-11-24T06:25:38.942Z,7.70
2022-11-24T06:28:07.933Z,7.60
2022-11-24T06:30:36.051Z,7.60
2022-11-24T06:33:04.371Z,7.60
2022-11-24T06:35:32.502Z,7.60
2022-11-24T06:38:00.912Z,7.60
2022-11-24T06:40:30.581Z,7.60
2022-11-24T06:42:59.374Z,7.70
2022-11-24T06:45:27.910Z,7.70
2022-11-24T06:47:57.300Z,7.70
2022-11-24T06:50:30.587Z,7.70
2022-11-24T06:53:02.142Z,7.70
2022-11-24T06:55:31.569Z,7.70
2022-11-24T06:58:00.247Z,7.70
2022-11-24T07:00:29.278Z,7.60
2022-11-24T07:02:59.277Z,7.60
2022-11-24T07:05:28.508Z,7.60
2022-11-24T07:07:59.848Z,7.60
2022-11-24T07:10:28.327Z,7.60
2022-11-24T07:12:57.796Z,7.60
2022-11-24T07:15:29.939Z,7.50
2022-11-24T07:17:58.359Z,7.50
2022-11-24T07:20:26.898Z,7.60
2022-11-24T07:22:56.092Z,7.60
2022-11-24T07:25:24.990Z,7.60
2022-11-24T07:27:58.218Z,7.60
2022-11-24T07:30:28.492Z,7.60
2022-11-24T07:32:59.647Z,7.60
2022-11-24T07:35:28.756Z,7.50
2022-11-24T07:37:57.276Z,7.50
2022-11-24T07:40:26.088Z,7.50
2022-11-24T07:42:54.973Z,7.50
2022-11-24T07:45:29.021Z,7.50
2022-11-24T07:47:57.495Z,7.70
2022-11-24T07:50:25.647Z,7.70
2022-11-24T07:52:53.972Z,7.80
2022-11-24T07:55:22.112Z,7.80
2022-11-24T07:57:50.446Z,7.90
2022-11-24T08:00:19.120Z,7.90
2022-11-24T08:02:49.140Z,7.90
2022-11-24T08:05:17.763Z,7.90
2022-11-24T08:07:45.959Z,7.90
2022-11-24T08:10:14.665Z,7.90
2022-11-24T08:12:43.963Z,8.00
2022-11-24T08:15:12.767Z,8.00
2022-11-24T08:17:40.846Z,8.00
2022-11-24T08:20:11.655Z,8.10
2022-11-24T08:22:39.770Z,8.00
2022-11-24T08:25:08.555Z,8.00
2022-11-24T08:27:37.441Z,8.10
2022-11-24T08:30:05.944Z,8.20
2022-11-24T08:32:34.261Z,8.30
2022-11-24T08:35:14.029Z,8.50
2022-11-24T08:37:45.331Z,8.60
2022-11-24T08:40:14.248Z,8.70
2022-11-24T08:42:42.638Z,8.80
2022-11-24T08:45:20.569Z,8.80
2022-11-24T08:47:52.663Z,8.70
2022-11-24T08:50:20.795Z,8.80
2022-11-24T08:52:52.251Z,8.90
2022-11-24T08:55:20.739Z,8.80
2022-11-24T08:57:49.367Z,8.90
2022-11-24T09:00:22.556Z,9.00
2022-11-24T09:02:58.838Z,9.00
2022-11-24T09:05:51.171Z,9.10
2022-11-24T09:08:16.571Z,9.00
